15:17
Airports
History
Links
Donate
Help keep this website running!
PayPal
Bitcoin
This page is community maintained. The information is intended for PC simulator navigation or reference.
Always use approved charts for navigation.
SDUN
Itaperuna
Itaperuna (SDUN)
Itaperuna, Rio de Janeiro, Brazil (28300)
(C)
Lat/Lng:21° 13' 9.36" S / 41° 52' 33.33" W
-21.219267 / -41.875924
Elevation:410'ft / 125mMSL
ID / ICAO:SDUN
Runways:1
Longest:06-24
Asphalt 1,207m / 3,960ft
Controlled:Yes
Nearby Weather15:00 GMT 2018-01-16
Nearby weather at SBCP, Bartolomeu Lisandro located 49.6 nautical miles from SDUN
Altimeter: 29.94
Visibility: 6.2 statute miles
Wind: 6 knots (from 340°)
Temp: 33°c / 91°f
Humidity: 46.5%

METAR: SBCP 161500Z 34006KT 9999 FEW020 33/20 Q1014

(Powered by phpweather)
Runway 06 / 24
Dimensions:1207 x 29.9m 3960' x 98'ft
Surface:Asphalt
Runway 06 [A]Runway 24 [B]
Heading:042°TH 222°TH
Lat:
Lng:
21° 13' 23.67"S
41° 52' 47.46"W
21° 12' 55.05"S
41° 52' 19.19"W
User Notes and Comments
21° 13' 9.36" S / 41° 52' 33.33" W
Distance To
Airport ID:
Nearby Airports
4 Fazenda Fenix 31.4 NM
SIZC NNW 345°
(U) CRISTIANO FERREIRA VARELLA 34.0 NM
SNBM W 280°
(U) Bartolomeu Lisandro 49.6 NM
SBCP ( WX ) SE 131°
(C) Cachoeiro Do Itapemirim 51.9 NM
SNKI ENE 59°
(C) Leopoldina 57.4 NM
SNDN WSW 252°
4 Vila de Tocos 58.9 NM
SIBC SE 140°
(C) Uba 65.2 NM
SNUB W 275°
VFR Chart
Flight Planning at SkyVector.com